METAR Data
IDs: Format: Raw Decoded Include TAF

Data at: 1040 UTC 22 Oct 2018

PAOM 220953Z 35010KT 10SM CLR 01/M03 A2947 RMK AO2 SLP978 T00111033
PAOM 220853Z 36011KT 10SM CLR 02/M03 A2946 RMK AO2 SLP978 T00171033 400501022 53004
PAOM 220753Z 01010KT 10SM CLR 01/M03 A2946 RMK AO2 SLP976 T00111033
PAOM 220653Z 01010KT 10SM CLR 02/M03 A2946 RMK AO2 SLP975 T00171033
PAOM 220553Z 01012KT 10SM CLR 02/M03 A2945 RMK AO2 SLP974 T00221033 10050 20011 51004
PAOM 220453Z 36014G20KT 10SM CLR 02/M03 A2945 RMK AO2 SLP974 T00171033
PAOM 220353Z 36013KT 10SM CLR 02/M03 A2945 RMK AO2 SLP971 T00221033
PAOM 220253Z 02015KT 10SM CLR 04/M03 A2944 RMK AO2 PK WND 02026/0202 SLP970 T00391028 53001
PAOM 220153Z 03017KT 10SM SCT080 04/M03 A2944 RMK AO2 PK WND 02026/0106 SLP970 T00441028
PAOM 220053Z 02019G27KT 10SM FEW070 04/M02 A2944 RMK AO2 PK WND 01028/0026 SLP968 T00441022
PAOM 212353Z 02021G26KT 10SM SCT080 SCT200 05/M02 A2944 RMK AO2 PK WND 02026/2353 SLP969 T00501022 10050 21006 56005
PAOM 212253Z 02017KT 10SM CLR 04/M02 A2945 RMK AO2 SLP972 T00441022
PAOM 212153Z 02019KT 10SM CLR 04/M02 A2945 RMK AO2 PK WND 02027/2122 SLP972 T00441022
PAOM 212053Z 02018KT 10SM CLR 04/M02 A2946 RMK AO2 SLP975 T00441022 58012
PAOM 211953Z 02012KT 10SM CLR 03/M03 A2947 RMK AO2 SLP980 T00331028
PAOM 211853Z 36013KT 10SM CLR 02/M03 A2948 RMK AO2 SLP984 T00221028
PAOM 211753Z 35005KT 10SM CLR 01/M03 A2949 RMK AO2 SLP986 T00061033 10033 21017 58004
PAOM 211653Z 03011KT 10SM CLR 02/M03 A2950 RMK AO2 SLP988 T00221028
PAOM 211553Z 04009KT 10SM CLR 02/M03 A2950 RMK AO2 SLP991 T00171028
PAOM 211453Z AUTO VRB03KT 10SM CLR 02/M03 A2950 RMK AO2 SLP990 T00171028 56010 TSNO
PAOM 211353Z AUTO 03006KT 10SM CLR 03/M03 A2951 RMK AO2 SLP992 T00281028 TSNO
PAOM 211253Z AUTO 36006KT 10SM CLR 01/M03 A2952 RMK AO2 SLP996 T00111028 TSNO
PAOM 211153Z AUTO 32008KT 10SM CLR M01/M03 A2953 RMK AO2 SLP001 T10061033 10011 21022 58014 TSNO
PAOM 211053Z AUTO 36006KT 10SM CLR M01/M03 A2955 RMK AO2 SLP005 T10111033 TSNO
PAOM 210953Z AUTO 36003KT 10SM CLR M02/M03 A2956 RMK AO2 SLP011 T10171033 TSNO
PAOM 210853Z AUTO 35006KT 10SM CLR M01/M03 A2957 RMK AO2 SLP015 T10111028 400611022 58006 TSNO
PAOM 210753Z AUTO 34008KT 10SM CLR M01/M03 A2958 RMK AO2 SLP017 T10061028 TSNO
PAOM 210653Z AUTO 35006KT 10SM CLR 01/M02 A2959 RMK AO2 SLP020 T00061022 TSNO
PAOM 210553Z 35007KT 10SM CLR 01/M02 A2959 RMK AO2 SLP021 T00061017 10056 20000 51003
PAOM 210453Z 34008KT 10SM CLR 01/M01 A2959 RMK AO2 SLP021 T00111006
PAOM 210353Z 34004KT 10SM CLR 01/00 A2959 RMK AO2 SLP019 T00060000
PAOM 210253Z 00000KT 10SM CLR 04/02 A2958 RMK AO2 SLP018 T00390022 55001
PAOM 210153Z 22004KT 10SM CLR 05/02 A2958 RMK AO2 SLP017 T00500022
PAOM 210053Z 21005KT 10SM CLR 05/02 A2958 RMK AO2 SLP017 T00500022
PAOM 202353Z 20005KT 10SM CLR 05/02 A2959 RMK AO2 SLP019 T00500022 10061 21017 58005
PAOM 202253Z 00000KT 10SM CLR 06/02 A2959 RMK AO2 SLP022 T00560022